sensor_id;sensor_type;location;lat;lon;timestamp;temperature;humidity
3954;DHT22;1991;48.682;9.030;2024-01-15T00:01:27;-1.20;99.90
3954;DHT22;1991;48.682;9.030;2024-01-15T00:03:52;-1.30;99.90
3954;DHT22;1991;48.682;9.030;2024-01-15T00:06:18;-1.30;99.90
3954;DHT22;1991;48.682;9.030;2024-01-15T00:08:43;-1.30;99.90
3954;DHT22;1991;48.682;9.030;2024-01-15T00:11:09;-1.30;99.90
3954;DHT22;1991;48.682;9.030;2024-01-15T00:13:35;-1.30;99.90
3954;DHT22;1991;48.682;9.030;2024-01-15T00:16:00;-1.30;99.90
3954;DHT22;1991;48.682;9.030;2024-01-15T00:18:26;-1.30;99.90
3954;DHT22;1991;48.682;9.030;2024-01-15T00:20:51;-1.30;99.90
3954;DHT22;1991;48.682;9.030;2024-01-15T00:23:17;-1.40;99.90
3954;DHT22;1991;48.682;9.030;2024-01-15T00:25:42;-1.30;99.90
3954;DHT22;1991;48.682;9.030;2024-01-15T00:28:08;-1.30;99.90
3954;DHT22;1991;48.682;9.030;2024-01-15T00:30:34;-1.30;99.90
3954;DHT22;1991;48.682;9.030;2024-01-15T00:32:59;-1.30;99.90
3954;DHT22;1991;48.682;9.030;2024-01-15T00:35:25;-1.40;99.90
3954;DHT22;1991;48.682;9.030;2024-01-15T00:37:50;-1.40;99.90
3954;DHT22;1991;48.682;9.030;2024-01-15T00:40:16;-1.60;99.90
3954;DHT22;1991;48.682;9.030;2024-01-15T00:42:41;-1.60;99.90
3954;DHT22;1991;48.682;9.030;2024-01-15T00:45:07;-1.70;99.90
3954;DHT22;1991;48.682;9.030;2024-01-15T00:47:34;-1.80;99.90
3954;DHT22;1991;48.682;9.030;2024-01-15T00:50:00;-1.80;99.90
3954;DHT22;1991;48.682;9.030;2024-01-15T00:52:26;-1.90;99.90
3954;DHT22;1991;48.682;9.030;2024-01-15T00:54:51;-2.00;99.90
3954;DHT22;1991;48.682;9.030;2024-01-15T00:57:17;-2.10;99.90
3954;DHT22;1991;48.682;9.030;2024-01-15T00:59:44;-2.10;99.90
3954;DHT22;1991;48.682;9.030;2024-01-15T01:02:10;-2.00;99.90
3954;DHT22;1991;48.682;9.030;2024-01-15T01:04:36;-2.00;99.90
3954;DHT22;1991;48.682;9.030;2024-01-15T01:07:01;-1.90;99.90
3954;DHT22;1991;48.682;9.030;2024-01-15T01:09:27;-1.90;99.90
3954;DHT22;1991;48.682;9.030;2024-01-15T01:11:55;-1.80;99.90
3954;DHT22;1991;48.682;9.030;2024-01-15T01:14:22;-1.70;99.90
3954;DHT22;1991;48.682;9.030;2024-01-15T01:16:47;-1.60;99.90
3954;DHT22;1991;48.682;9.030;2024-01-15T01:19:13;-1.60;99.90
3954;DHT22;1991;48.682;9.030;2024-01-15T01:21:39;-1.60;99.90
3954;DHT22;1991;48.682;9.030;2024-01-15T01:24:04;-1.60;99.90
3954;DHT22;1991;48.682;9.030;2024-01-15T01:26:30;-1.60;99.90
3954;DHT22;1991;48.682;9.030;2024-01-15T01:28:56;-1.50;99.90
3954;DHT22;1991;48.682;9.030;2024-01-15T01:31:23;-1.60;99.90
3954;DHT22;1991;48.682;9.030;2024-01-15T01:33:49;-1.50;99.90
3954;DHT22;1991;48.682;9.030;2024-01-15T01:36:15;-1.50;99.90
3954;DHT22;1991;48.682;9.030;2024-01-15T01:38:41;-1.40;99.90
3954;DHT22;1991;48.682;9.030;2024-01-15T01:41:06;-1.40;99.90
3954;DHT22;1991;48.682;9.030;2024-01-15T01:43:33;-1.40;99.90
3954;DHT22;1991;48.682;9.030;2024-01-15T01:46:00;-1.40;99.90
3954;DHT22;1991;48.682;9.030;2024-01-15T01:48:26;-1.30;99.90
3954;DHT22;1991;48.682;9.030;2024-01-15T01:50:54;-1.30;99.90
3954;DHT22;1991;48.682;9.030;2024-01-15T01:53:20;-1.30;99.90
3954;DHT22;1991;48.682;9.030;2024-01-15T01:55:46;-1.30;99.90
3954;DHT22;1991;48.682;9.030;2024-01-15T01:58:13;-1.40;99.90
3954;DHT22;1991;48.682;9.030;2024-01-15T02:00:39;-1.50;99.90
3954;DHT22;1991;48.682;9.030;2024-01-15T02:03:04;-1.60;99.90
3954;DHT22;1991;48.682;9.030;2024-01-15T02:05:31;-1.70;99.90
3954;DHT22;1991;48.682;9.030;2024-01-15T02:07:57;-1.60;99.90
3954;DHT22;1991;48.682;9.030;2024-01-15T02:10:22;-1.60;99.90
3954;DHT22;1991;48.682;9.030;2024-01-15T02:12:48;-1.60;99.90
3954;DHT22;1991;48.682;9.030;2024-01-15T02:15:14;-1.60;99.90
3954;DHT22;1991;48.682;9.030;2024-01-15T02:18:01;-1.60;99.90
3954;DHT22;1991;48.682;9.030;2024-01-15T02:20:28;-1.50;99.90
3954;DHT22;1991;48.682;9.030;2024-01-15T02:22:54;-1.60;99.90
3954;DHT22;1991;48.682;9.030;2024-01-15T02:25:19;-1.70;99.90
3954;DHT22;1991;48.682;9.030;2024-01-15T02:27:46;-1.60;99.90
3954;DHT22;1991;48.682;9.030;2024-01-15T02:30:13;-1.70;99.90
3954;DHT22;1991;48.682;9.030;2024-01-15T02:32:39;-1.70;99.90
3954;DHT22;1991;48.682;9.030;2024-01-15T02:35:04;-1.80;99.90
3954;DHT22;1991;48.682;9.030;2024-01-15T02:37:30;-1.90;99.90
3954;DHT22;1991;48.682;9.030;2024-01-15T02:39:56;-1.90;99.90
3954;DHT22;1991;48.682;9.030;2024-01-15T02:42:21;-2.10;99.90
3954;DHT22;1991;48.682;9.030;2024-01-15T02:44:47;-2.10;99.90
3954;DHT22;1991;48.682;9.030;2024-01-15T02:47:14;-2.20;99.90
3954;DHT22;1991;48.682;9.030;2024-01-15T02:49:39;-2.20;99.90
3954;DHT22;1991;48.682;9.030;2024-01-15T02:52:05;-2.20;99.90
3954;DHT22;1991;48.682;9.030;2024-01-15T02:54:31;-2.20;99.90
3954;DHT22;1991;48.682;9.030;2024-01-15T02:56:56;-2.30;99.90
3954;DHT22;1991;48.682;9.030;2024-01-15T02:59:22;-2.30;99.90
3954;DHT22;1991;48.682;9.030;2024-01-15T03:01:47;-2.40;99.90
3954;DHT22;1991;48.682;9.030;2024-01-15T03:04:13;-2.40;99.90
3954;DHT22;1991;48.682;9.030;2024-01-15T03:06:38;-2.40;99.90
3954;DHT22;1991;48.682;9.030;2024-01-15T03:09:04;-2.40;99.90
3954;DHT22;1991;48.682;9.030;2024-01-15T03:11:37;-2.40;99.90
3954;DHT22;1991;48.682;9.030;2024-01-15T03:14:02;-2.30;99.90
3954;DHT22;1991;48.682;9.030;2024-01-15T03:16:28;-2.40;99.90
3954;DHT22;1991;48.682;9.030;2024-01-15T03:18:53;-2.30;99.90
3954;DHT22;1991;48.682;9.030;2024-01-15T03:21:19;-2.30;99.90
3954;DHT22;1991;48.682;9.030;2024-01-15T03:23:44;-2.20;99.90
3954;DHT22;1991;48.682;9.030;2024-01-15T03:26:10;-2.20;99.90
3954;DHT22;1991;48.682;9.030;2024-01-15T03:28:36;-2.20;99.90
3954;DHT22;1991;48.682;9.030;2024-01-15T03:31:01;-2.20;99.90
3954;DHT22;1991;48.682;9.030;2024-01-15T03:33:27;-2.20;99.90
3954;DHT22;1991;48.682;9.030;2024-01-15T03:35:52;-2.20;99.90
3954;DHT22;1991;48.682;9.030;2024-01-15T03:38:18;-2.20;99.90
3954;DHT22;1991;48.682;9.030;2024-01-15T03:40:43;-2.20;99.90
3954;DHT22;1991;48.682;9.030;2024-01-15T03:43:09;-2.10;99.90
3954;DHT22;1991;48.682;9.030;2024-01-15T03:45:34;-2.00;99.90
3954;DHT22;1991;48.682;9.030;2024-01-15T03:48:00;-1.90;99.90
3954;DHT22;1991;48.682;9.030;2024-01-15T03:50:25;-1.90;99.90
3954;DHT22;1991;48.682;9.030;2024-01-15T03:52:51;-1.80;99.90
3954;DHT22;1991;48.682;9.030;2024-01-15T03:55:17;-1.70;99.90
3954;DHT22;1991;48.682;9.030;2024-01-15T03:57:42;-1.50;99.90
3954;DHT22;1991;48.682;9.030;2024-01-15T04:00:08;-1.30;99.90
3954;DHT22;1991;48.682;9.030;2024-01-15T04:02:34;-1.10;99.90
3954;DHT22;1991;48.682;9.030;2024-01-15T04:04:59;-1.10;99.90
3954;DHT22;1991;48.682;9.030;2024-01-15T04:07:25;-1.10;99.90
3954;DHT22;1991;48.682;9.030;2024-01-15T04:09:50;-1.10;99.90
3954;DHT22;1991;48.682;9.030;2024-01-15T04:12:17;-1.00;99.90
3954;DHT22;1991;48.682;9.030;2024-01-15T04:14:43;-1.10;99.90
3954;DHT22;1991;48.682;9.030;2024-01-15T04:17:08;-1.10;99.90
3954;DHT22;1991;48.682;9.030;2024-01-15T04:19:34;-1.10;99.90
3954;DHT22;1991;48.682;9.030;2024-01-15T04:21:59;-1.00;99.90
3954;DHT22;1991;48.682;9.030;2024-01-15T04:24:25;-1.00;99.90
3954;DHT22;1991;48.682;9.030;2024-01-15T04:26:51;-1.00;99.90
3954;DHT22;1991;48.682;9.030;2024-01-15T04:29:16;-1.00;99.90
3954;DHT22;1991;48.682;9.030;2024-01-15T04:31:42;-1.00;99.90
3954;DHT22;1991;48.682;9.030;2024-01-15T04:34:07;-0.90;99.90
3954;DHT22;1991;48.682;9.030;2024-01-15T04:36:39;-0.90;99.90
3954;DHT22;1991;48.682;9.030;2024-01-15T04:39:04;-0.90;99.90
3954;DHT22;1991;48.682;9.030;2024-01-15T04:41:30;-1.00;99.90
3954;DHT22;1991;48.682;9.030;2024-01-15T04:43:55;-1.00;99.90
3954;DHT22;1991;48.682;9.030;2024-01-15T04:46:21;-0.90;99.90
3954;DHT22;1991;48.682;9.030;2024-01-15T04:48:46;-1.00;99.90
3954;DHT22;1991;48.682;9.030;2024-01-15T04:51:12;-1.00;99.90
3954;DHT22;1991;48.682;9.030;2024-01-15T04:53:38;-0.90;99.90
3954;DHT22;1991;48.682;9.030;2024-01-15T04:56:03;-1.00;99.90
3954;DHT22;1991;48.682;9.030;2024-01-15T04:58:29;-1.00;99.90
3954;DHT22;1991;48.682;9.030;2024-01-15T05:00:55;-0.90;99.90
3954;DHT22;1991;48.682;9.030;2024-01-15T05:03:20;-0.90;99.90
3954;DHT22;1991;48.682;9.030;2024-01-15T05:05:46;-0.90;99.90
3954;DHT22;1991;48.682;9.030;2024-01-15T05:08:12;-0.90;99.90
3954;DHT22;1991;48.682;9.030;2024-01-15T05:10:37;-0.90;99.90
3954;DHT22;1991;48.682;9.030;2024-01-15T05:13:03;-0.90;99.90
3954;DHT22;1991;48.682;9.030;2024-01-15T05:15:28;-0.90;99.90
3954;DHT22;1991;48.682;9.030;2024-01-15T05:17:55;-0.90;99.90
3954;DHT22;1991;48.682;9.030;2024-01-15T05:20:20;-0.90;99.90
3954;DHT22;1991;48.682;9.030;2024-01-15T05:22:46;-0.90;99.90
3954;DHT22;1991;48.682;9.030;2024-01-15T05:25:11;-0.90;99.90
3954;DHT22;1991;48.682;9.030;2024-01-15T05:27:37;-0.90;99.90
3954;DHT22;1991;48.682;9.030;2024-01-15T05:30:03;-0.90;99.90
3954;DHT22;1991;48.682;9.030;2024-01-15T05:32:29;-0.90;99.90
3954;DHT22;1991;48.682;9.030;2024-01-15T05:34:55;-0.80;99.90
3954;DHT22;1991;48.682;9.030;2024-01-15T05:37:20;-0.90;99.90
3954;DHT22;1991;48.682;9.030;2024-01-15T05:39:46;-0.90;99.90
3954;DHT22;1991;48.682;9.030;2024-01-15T05:42:12;-0.90;99.90
3954;DHT22;1991;48.682;9.030;2024-01-15T05:44:37;-0.90;99.90
3954;DHT22;1991;48.682;9.030;2024-01-15T05:47:03;-0.90;99.90
3954;DHT22;1991;48.682;9.030;2024-01-15T05:49:29;-0.90;99.90
3954;DHT22;1991;48.682;9.030;2024-01-15T05:51:55;-1.00;99.90
3954;DHT22;1991;48.682;9.030;2024-01-15T05:54:20;-1.00;99.90
3954;DHT22;1991;48.682;9.030;2024-01-15T05:56:46;-1.00;99.90
3954;DHT22;1991;48.682;9.030;2024-01-15T05:59:12;-1.00;99.90
3954;DHT22;1991;48.682;9.030;2024-01-15T06:01:37;-1.10;99.90
3954;DHT22;1991;48.682;9.030;2024-01-15T06:04:03;-1.00;99.90
3954;DHT22;1991;48.682;9.030;2024-01-15T06:06:29;-1.00;99.90
3954;DHT22;1991;48.682;9.030;2024-01-15T06:08:54;-1.00;99.90
3954;DHT22;1991;48.682;9.030;2024-01-15T06:11:20;-1.00;99.90
3954;DHT22;1991;48.682;9.030;2024-01-15T06:13:45;-1.00;99.90
3954;DHT22;1991;48.682;9.030;2024-01-15T06:16:14;-1.00;99.90
3954;DHT22;1991;48.682;9.030;2024-01-15T06:18:41;-1.00;99.90
3954;DHT22;1991;48.682;9.030;2024-01-15T06:21:07;-1.00;99.90
3954;DHT22;1991;48.682;9.030;2024-01-15T06:23:33;-1.00;99.90
3954;DHT22;1991;48.682;9.030;2024-01-15T06:25:58;-1.00;99.90
3954;DHT22;1991;48.682;9.030;2024-01-15T06:28:24;-1.10;99.90
3954;DHT22;1991;48.682;9.030;2024-01-15T06:30:49;-1.00;99.90
3954;DHT22;1991;48.682;9.030;2024-01-15T06:33:15;-1.10;99.90
3954;DHT22;1991;48.682;9.030;2024-01-15T06:35:41;-1.10;99.90
3954;DHT22;1991;48.682;9.030;2024-01-15T06:38:06;-1.10;99.90
3954;DHT22;1991;48.682;9.030;2024-01-15T06:40:32;-1.10;99.90
3954;DHT22;1991;48.682;9.030;2024-01-15T06:42:57;-1.10;99.90
3954;DHT22;1991;48.682;9.030;2024-01-15T06:45:23;-1.00;99.90
3954;DHT22;1991;48.682;9.030;2024-01-15T06:47:49;-1.00;99.90
3954;DHT22;1991;48.682;9.030;2024-01-15T06:50:14;-1.00;99.90
3954;DHT22;1991;48.682;9.030;2024-01-15T06:52:40;-1.00;99.90
3954;DHT22;1991;48.682;9.030;2024-01-15T06:55:06;-1.10;99.90
3954;DHT22;1991;48.682;9.030;2024-01-15T06:57:31;-1.10;99.90
3954;DHT22;1991;48.682;9.030;2024-01-15T06:59:57;-1.10;99.90
3954;DHT22;1991;48.682;9.030;2024-01-15T07:02:22;-1.10;99.90
3954;DHT22;1991;48.682;9.030;2024-01-15T07:04:48;-1.20;99.90
3954;DHT22;1991;48.682;9.030;2024-01-15T07:07:13;-1.10;99.90
3954;DHT22;1991;48.682;9.030;2024-01-15T07:09:39;-1.10;99.90
3954;DHT22;1991;48.682;9.030;2024-01-15T07:12:05;-1.20;99.90
3954;DHT22;1991;48.682;9.030;2024-01-15T07:14:30;-1.20;99.90
3954;DHT22;1991;48.682;9.030;2024-01-15T07:16:56;-1.20;99.90
3954;DHT22;1991;48.682;9.030;2024-01-15T07:19:21;-1.10;99.90
3954;DHT22;1991;48.682;9.030;2024-01-15T07:21:47;-1.10;99.90
3954;DHT22;1991;48.682;9.030;2024-01-15T07:24:12;-1.10;99.90
3954;DHT22;1991;48.682;9.030;2024-01-15T07:26:38;-1.10;99.90
3954;DHT22;1991;48.682;9.030;2024-01-15T07:29:04;-1.00;99.90
3954;DHT22;1991;48.682;9.030;2024-01-15T07:31:29;-1.00;99.90
3954;DHT22;1991;48.682;9.030;2024-01-15T07:33:55;-1.00;99.90
3954;DHT22;1991;48.682;9.030;2024-01-15T07:36:20;-1.00;99.90
3954;DHT22;1991;48.682;9.030;2024-01-15T07:38:46;-1.00;99.90
3954;DHT22;1991;48.682;9.030;2024-01-15T07:41:13;-0.90;99.90
3954;DHT22;1991;48.682;9.030;2024-01-15T07:43:39;-0.90;99.90
3954;DHT22;1991;48.682;9.030;2024-01-15T07:46:04;-0.90;99.90
3954;DHT22;1991;48.682;9.030;2024-01-15T07:48:30;-0.80;99.90
3954;DHT22;1991;48.682;9.030;2024-01-15T07:50:55;-0.80;99.90
3954;DHT22;1991;48.682;9.030;2024-01-15T07:53:21;-0.70;99.90
3954;DHT22;1991;48.682;9.030;2024-01-15T07:55:46;-0.70;99.90
3954;DHT22;1991;48.682;9.030;2024-01-15T07:58:12;-0.60;99.90
3954;DHT22;1991;48.682;9.030;2024-01-15T08:00:38;-0.60;99.90
3954;DHT22;1991;48.682;9.030;2024-01-15T08:03:03;-0.60;99.90
3954;DHT22;1991;48.682;9.030;2024-01-15T08:05:29;-0.60;99.90
3954;DHT22;1991;48.682;9.030;2024-01-15T08:07:55;-0.50;99.90
3954;DHT22;1991;48.682;9.030;2024-01-15T08:10:20;-0.50;99.90
3954;DHT22;1991;48.682;9.030;2024-01-15T08:12:46;-0.40;99.90
3954;DHT22;1991;48.682;9.030;2024-01-15T08:15:11;-0.50;99.90
3954;DHT22;1991;48.682;9.030;2024-01-15T08:17:37;-0.40;99.90
3954;DHT22;1991;48.682;9.030;2024-01-15T08:20:03;-0.40;99.90
3954;DHT22;1991;48.682;9.030;2024-01-15T08:22:30;-0.30;99.90
3954;DHT22;1991;48.682;9.030;2024-01-15T08:24:55;-0.30;99.90
3954;DHT22;1991;48.682;9.030;2024-01-15T08:27:21;-0.30;99.90
3954;DHT22;1991;48.682;9.030;2024-01-15T08:29:47;-0.20;99.90
3954;DHT22;1991;48.682;9.030;2024-01-15T08:32:13;-0.20;99.90
3954;DHT22;1991;48.682;9.030;2024-01-15T08:34:41;-0.10;99.90
3954;DHT22;1991;48.682;9.030;2024-01-15T08:37:07;0.00;99.90
3954;DHT22;1991;48.682;9.030;2024-01-15T08:39:32;0.10;99.90
3954;DHT22;1991;48.682;9.030;2024-01-15T08:41:58;0.10;99.90
3954;DHT22;1991;48.682;9.030;2024-01-15T08:44:23;0.10;99.90
3954;DHT22;1991;48.682;9.030;2024-01-15T08:46:49;0.20;99.90
3954;DHT22;1991;48.682;9.030;2024-01-15T08:49:15;0.30;99.90
3954;DHT22;1991;48.682;9.030;2024-01-15T08:51:40;0.40;99.90
3954;DHT22;1991;48.682;9.030;2024-01-15T08:54:06;0.40;99.90
3954;DHT22;1991;48.682;9.030;2024-01-15T08:56:33;0.50;99.90
3954;DHT22;1991;48.682;9.030;2024-01-15T08:58:59;0.60;99.90
3954;DHT22;1991;48.682;9.030;2024-01-15T09:01:25;0.60;99.90
3954;DHT22;1991;48.682;9.030;2024-01-15T09:03:51;0.50;99.90
3954;DHT22;1991;48.682;9.030;2024-01-15T09:06:16;0.50;99.90
3954;DHT22;1991;48.682;9.030;2024-01-15T09:08:42;0.50;99.90
3954;DHT22;1991;48.682;9.030;2024-01-15T09:11:07;0.50;99.90
3954;DHT22;1991;48.682;9.030;2024-01-15T09:13:33;0.60;99.90
3954;DHT22;1991;48.682;9.030;2024-01-15T09:15:59;0.60;99.90
3954;DHT22;1991;48.682;9.030;2024-01-15T09:18:25;0.60;99.90
3954;DHT22;1991;48.682;9.030;2024-01-15T09:20:50;0.70;99.90
3954;DHT22;1991;48.682;9.030;2024-01-15T09:23:16;0.60;99.90
3954;DHT22;1991;48.682;9.030;2024-01-15T09:25:42;0.70;99.90
3954;DHT22;1991;48.682;9.030;2024-01-15T09:28:07;0.70;99.90
3954;DHT22;1991;48.682;9.030;2024-01-15T09:30:33;0.70;99.90
3954;DHT22;1991;48.682;9.030;2024-01-15T09:32:59;0.80;99.90
3954;DHT22;1991;48.682;9.030;2024-01-15T09:35:24;0.80;99.90
3954;DHT22;1991;48.682;9.030;2024-01-15T09:37:50;0.90;99.90
3954;DHT22;1991;48.682;9.030;2024-01-15T09:40:16;1.00;99.90
3954;DHT22;1991;48.682;9.030;2024-01-15T09:42:42;1.00;99.90
3954;DHT22;1991;48.682;9.030;2024-01-15T09:45:08;1.10;99.90
3954;DHT22;1991;48.682;9.030;2024-01-15T09:47:36;1.20;99.90
3954;DHT22;1991;48.682;9.030;2024-01-15T09:50:02;1.20;99.90
3954;DHT22;1991;48.682;9.030;2024-01-15T09:52:30;1.10;99.90
3954;DHT22;1991;48.682;9.030;2024-01-15T09:54:57;1.20;99.90
3954;DHT22;1991;48.682;9.030;2024-01-15T09:57:23;1.20;99.90
3954;DHT22;1991;48.682;9.030;2024-01-15T09:59:50;1.20;99.90
3954;DHT22;1991;48.682;9.030;2024-01-15T10:02:17;1.30;99.90
3954;DHT22;1991;48.682;9.030;2024-01-15T10:04:44;1.20;99.90
3954;DHT22;1991;48.682;9.030;2024-01-15T10:07:12;1.10;99.90
3954;DHT22;1991;48.682;9.030;2024-01-15T10:09:40;1.10;99.90
3954;DHT22;1991;48.682;9.030;2024-01-15T10:12:06;1.10;99.90
3954;DHT22;1991;48.682;9.030;2024-01-15T10:14:33;1.10;99.90
3954;DHT22;1991;48.682;9.030;2024-01-15T10:16:58;1.10;99.90
3954;DHT22;1991;48.682;9.030;2024-01-15T10:19:24;1.10;99.90
3954;DHT22;1991;48.682;9.030;2024-01-15T10:21:49;1.10;99.90
3954;DHT22;1991;48.682;9.030;2024-01-15T10:24:15;1.00;99.90
3954;DHT22;1991;48.682;9.030;2024-01-15T10:26:40;0.90;99.90
3954;DHT22;1991;48.682;9.030;2024-01-15T10:29:06;1.00;99.90
3954;DHT22;1991;48.682;9.030;2024-01-15T10:31:31;1.00;99.90
3954;DHT22;1991;48.682;9.030;2024-01-15T10:34:10;1.00;99.90
3954;DHT22;1991;48.682;9.030;2024-01-15T10:36:39;1.00;99.90
3954;DHT22;1991;48.682;9.030;2024-01-15T10:39:06;1.00;99.90
3954;DHT22;1991;48.682;9.030;2024-01-15T10:41:32;1.10;99.90
3954;DHT22;1991;48.682;9.030;2024-01-15T10:43:58;1.10;99.90
3954;DHT22;1991;48.682;9.030;2024-01-15T10:46:24;1.10;99.90
3954;DHT22;1991;48.682;9.030;2024-01-15T10:48:51;1.10;99.90
3954;DHT22;1991;48.682;9.030;2024-01-15T10:51:17;1.10;99.90
3954;DHT22;1991;48.682;9.030;2024-01-15T10:53:44;1.10;99.90
3954;DHT22;1991;48.682;9.030;2024-01-15T10:56:11;1.10;99.90
3954;DHT22;1991;48.682;9.030;2024-01-15T10:58:39;1.10;99.90
3954;DHT22;1991;48.682;9.030;2024-01-15T11:01:05;1.10;99.90
3954;DHT22;1991;48.682;9.030;2024-01-15T11:03:31;1.10;99.90
3954;DHT22;1991;48.682;9.030;2024-01-15T11:05:57;1.00;99.90
3954;DHT22;1991;48.682;9.030;2024-01-15T11:08:25;0.90;99.90
3954;DHT22;1991;48.682;9.030;2024-01-15T11:10:51;0.90;99.90
3954;DHT22;1991;48.682;9.030;2024-01-15T11:13:22;0.80;99.90
3954;DHT22;1991;48.682;9.030;2024-01-15T11:16:09;0.80;99.90
3954;DHT22;1991;48.682;9.030;2024-01-15T11:18:37;0.80;99.90
3954;DHT22;1991;48.682;9.030;2024-01-15T11:23:49;0.80;99.90
3954;DHT22;1991;48.682;9.030;2024-01-15T11:29:00;0.80;99.90
3954;DHT22;1991;48.682;9.030;2024-01-15T11:34:12;0.80;99.90
3954;DHT22;1991;48.682;9.030;2024-01-15T11:42:00;1.00;99.90
3954;DHT22;1991;48.682;9.030;2024-01-15T11:44:27;1.00;99.90
3954;DHT22;1991;48.682;9.030;2024-01-15T11:47:02;1.00;99.90
3954;DHT22;1991;48.682;9.030;2024-01-15T11:52:16;1.00;99.90
3954;DHT22;1991;48.682;9.030;2024-01-15T11:54:49;1.00;99.90
3954;DHT22;1991;48.682;9.030;2024-01-15T11:57:25;1.10;99.90
3954;DHT22;1991;48.682;9.030;2024-01-15T11:59:56;1.10;99.90
3954;DHT22;1991;48.682;9.030;2024-01-15T12:02:22;1.00;99.90
3954;DHT22;1991;48.682;9.030;2024-01-15T12:04:47;1.00;99.90
3954;DHT22;1991;48.682;9.030;2024-01-15T12:07:13;1.00;99.90
3954;DHT22;1991;48.682;9.030;2024-01-15T12:09:47;0.80;99.90
3954;DHT22;1991;48.682;9.030;2024-01-15T12:12:21;0.80;99.90
3954;DHT22;1991;48.682;9.030;2024-01-15T12:14:50;0.70;99.90
3954;DHT22;1991;48.682;9.030;2024-01-15T12:17:16;0.70;99.90
3954;DHT22;1991;48.682;9.030;2024-01-15T12:19:42;0.60;99.90
3954;DHT22;1991;48.682;9.030;2024-01-15T12:22:08;0.60;99.90
3954;DHT22;1991;48.682;9.030;2024-01-15T12:24:34;0.50;99.90
3954;DHT22;1991;48.682;9.030;2024-01-15T12:27:01;0.60;99.90
3954;DHT22;1991;48.682;9.030;2024-01-15T12:29:26;0.50;99.90
3954;DHT22;1991;48.682;9.030;2024-01-15T12:31:53;0.50;99.90
3954;DHT22;1991;48.682;9.030;2024-01-15T12:34:19;0.50;99.90
3954;DHT22;1991;48.682;9.030;2024-01-15T12:36:46;0.50;99.90
3954;DHT22;1991;48.682;9.030;2024-01-15T12:39:12;0.60;99.90
3954;DHT22;1991;48.682;9.030;2024-01-15T12:41:38;0.50;99.90
3954;DHT22;1991;48.682;9.030;2024-01-15T12:44:04;0.50;99.90
3954;DHT22;1991;48.682;9.030;2024-01-15T12:46:30;0.40;99.90
3954;DHT22;1991;48.682;9.030;2024-01-15T12:48:57;0.40;99.90
3954;DHT22;1991;48.682;9.030;2024-01-15T12:51:26;0.30;99.90
3954;DHT22;1991;48.682;9.030;2024-01-15T12:53:52;0.30;99.90
3954;DHT22;1991;48.682;9.030;2024-01-15T12:56:18;0.30;99.90
3954;DHT22;1991;48.682;9.030;2024-01-15T12:58:44;0.40;99.90
3954;DHT22;1991;48.682;9.030;2024-01-15T13:01:09;0.30;99.90
3954;DHT22;1991;48.682;9.030;2024-01-15T13:03:35;0.30;99.90
3954;DHT22;1991;48.682;9.030;2024-01-15T13:06:01;0.30;99.90
3954;DHT22;1991;48.682;9.030;2024-01-15T13:08:26;0.30;99.90
3954;DHT22;1991;48.682;9.030;2024-01-15T13:10:55;0.30;99.90
3954;DHT22;1991;48.682;9.030;2024-01-15T13:13:22;0.30;99.90
3954;DHT22;1991;48.682;9.030;2024-01-15T13:15:48;0.30;99.90
3954;DHT22;1991;48.682;9.030;2024-01-15T13:18:13;0.30;99.90
3954;DHT22;1991;48.682;9.030;2024-01-15T13:20:39;0.30;99.90
3954;DHT22;1991;48.682;9.030;2024-01-15T13:23:04;0.30;99.90
3954;DHT22;1991;48.682;9.030;2024-01-15T13:25:30;0.30;99.90
3954;DHT22;1991;48.682;9.030;2024-01-15T13:27:56;0.20;99.90
3954;DHT22;1991;48.682;9.030;2024-01-15T13:30:22;0.20;99.90
3954;DHT22;1991;48.682;9.030;2024-01-15T13:32:47;0.20;99.90
3954;DHT22;1991;48.682;9.030;2024-01-15T13:35:13;0.20;99.90
3954;DHT22;1991;48.682;9.030;2024-01-15T13:37:39;0.20;99.90
3954;DHT22;1991;48.682;9.030;2024-01-15T13:40:07;0.10;99.90
3954;DHT22;1991;48.682;9.030;2024-01-15T13:42:35;0.10;99.90
3954;DHT22;1991;48.682;9.030;2024-01-15T13:45:05;0.10;99.90
3954;DHT22;1991;48.682;9.030;2024-01-15T13:47:31;0.10;99.90
3954;DHT22;1991;48.682;9.030;2024-01-15T13:49:57;0.10;99.90
3954;DHT22;1991;48.682;9.030;2024-01-15T13:52:23;0.10;99.90
3954;DHT22;1991;48.682;9.030;2024-01-15T13:54:48;0.10;99.90
3954;DHT22;1991;48.682;9.030;2024-01-15T13:57:14;0.10;99.90
3954;DHT22;1991;48.682;9.030;2024-01-15T13:59:40;0.10;99.90
3954;DHT22;1991;48.682;9.030;2024-01-15T14:02:05;0.10;99.90
3954;DHT22;1991;48.682;9.030;2024-01-15T14:04:31;0.10;99.90
3954;DHT22;1991;48.682;9.030;2024-01-15T14:06:56;0.10;99.90
3954;DHT22;1991;48.682;9.030;2024-01-15T14:09:22;0.10;99.90
3954;DHT22;1991;48.682;9.030;2024-01-15T14:11:48;0.10;99.90
3954;DHT22;1991;48.682;9.030;2024-01-15T14:14:14;0.10;99.90
3954;DHT22;1991;48.682;9.030;2024-01-15T14:16:39;0.10;99.90
3954;DHT22;1991;48.682;9.030;2024-01-15T14:19:05;0.10;99.90
3954;DHT22;1991;48.682;9.030;2024-01-15T14:21:35;0.20;99.90
3954;DHT22;1991;48.682;9.030;2024-01-15T14:24:01;0.20;99.90
3954;DHT22;1991;48.682;9.030;2024-01-15T14:26:26;0.20;99.90
3954;DHT22;1991;48.682;9.030;2024-01-15T14:28:53;0.30;99.90
3954;DHT22;1991;48.682;9.030;2024-01-15T14:31:20;0.30;99.90
3954;DHT22;1991;48.682;9.030;2024-01-15T14:33:45;0.30;99.90
3954;DHT22;1991;48.682;9.030;2024-01-15T14:36:11;0.30;99.90
3954;DHT22;1991;48.682;9.030;2024-01-15T14:38:36;0.30;99.90
3954;DHT22;1991;48.682;9.030;2024-01-15T14:41:02;0.30;99.90
3954;DHT22;1991;48.682;9.030;2024-01-15T14:43:28;0.30;99.90
3954;DHT22;1991;48.682;9.030;2024-01-15T14:45:53;0.40;99.90
3954;DHT22;1991;48.682;9.030;2024-01-15T14:48:19;0.30;99.90
3954;DHT22;1991;48.682;9.030;2024-01-15T14:50:44;0.40;99.90
3954;DHT22;1991;48.682;9.030;2024-01-15T14:53:10;0.40;99.90
3954;DHT22;1991;48.682;9.030;2024-01-15T14:55:35;0.30;99.90
3954;DHT22;1991;48.682;9.030;2024-01-15T14:58:01;0.30;99.90
3954;DHT22;1991;48.682;9.030;2024-01-15T15:00:27;0.30;99.90
3954;DHT22;1991;48.682;9.030;2024-01-15T15:02:53;0.30;99.90
3954;DHT22;1991;48.682;9.030;2024-01-15T15:05:19;0.20;99.90
3954;DHT22;1991;48.682;9.030;2024-01-15T15:07:45;0.20;99.90
3954;DHT22;1991;48.682;9.030;2024-01-15T15:10:11;0.20;99.90
3954;DHT22;1991;48.682;9.030;2024-01-15T15:12:37;0.10;99.90
3954;DHT22;1991;48.682;9.030;2024-01-15T15:15:03;0.10;99.90
3954;DHT22;1991;48.682;9.030;2024-01-15T15:17:29;0.10;99.90
3954;DHT22;1991;48.682;9.030;2024-01-15T15:19:54;0.10;99.90
3954;DHT22;1991;48.682;9.030;2024-01-15T15:22:20;0.10;99.90
3954;DHT22;1991;48.682;9.030;2024-01-15T15:24:46;0.00;99.90
3954;DHT22;1991;48.682;9.030;2024-01-15T15:27:12;0.00;99.90
3954;DHT22;1991;48.682;9.030;2024-01-15T15:29:37;-0.10;99.90
3954;DHT22;1991;48.682;9.030;2024-01-15T15:32:03;-0.10;99.90
3954;DHT22;1991;48.682;9.030;2024-01-15T15:34:29;-0.10;99.90
3954;DHT22;1991;48.682;9.030;2024-01-15T15:36:54;-0.10;99.90
3954;DHT22;1991;48.682;9.030;2024-01-15T15:39:20;-0.10;99.90
3954;DHT22;1991;48.682;9.030;2024-01-15T15:41:46;-0.20;99.90
3954;DHT22;1991;48.682;9.030;2024-01-15T15:44:11;-0.20;99.90
3954;DHT22;1991;48.682;9.030;2024-01-15T15:46:40;-0.20;99.90
3954;DHT22;1991;48.682;9.030;2024-01-15T15:49:05;-0.30;99.90
3954;DHT22;1991;48.682;9.030;2024-01-15T15:51:35;-0.30;99.90
3954;DHT22;1991;48.682;9.030;2024-01-15T15:54:01;-0.30;99.90
3954;DHT22;1991;48.682;9.030;2024-01-15T15:56:27;-0.30;99.90
3954;DHT22;1991;48.682;9.030;2024-01-15T15:58:53;-0.30;99.90
3954;DHT22;1991;48.682;9.030;2024-01-15T16:01:18;-0.20;99.90
3954;DHT22;1991;48.682;9.030;2024-01-15T16:03:44;-0.20;99.90
3954;DHT22;1991;48.682;9.030;2024-01-15T16:06:11;-0.30;99.90
3954;DHT22;1991;48.682;9.030;2024-01-15T16:08:36;-0.30;99.90
3954;DHT22;1991;48.682;9.030;2024-01-15T16:11:02;-0.30;99.90
3954;DHT22;1991;48.682;9.030;2024-01-15T16:13:27;-0.30;99.90
3954;DHT22;1991;48.682;9.030;2024-01-15T16:15:53;-0.40;99.90